Time;durP1;ratioP1;P1;durP2;ratioP2;P2;SDS_P1;SDS_P2;PMS_P1;PMS_P2;Temp;Humidity;BMP_temperature;BMP_pressure;BME280_temperature;BME280_humidity;BME280_pressure;Samples;Min_cycle;Max_cycle;Signal;HPM_P1;HPM_P2
2022/04/23 00:01:24;;;;;;;28.92;23.23;;;;;;;12.29;68.70;97973.88;4994995;28;20033;-83
2022/04/23 00:03:49;;;;;;;24.05;21.40;;;;;;;12.21;69.25;97979.03;5024573;28;20084;-83
2022/04/23 00:06:15;;;;;;;25.42;20.80;;;;;;;12.24;68.73;97981.13;5019020;28;20029;-83
2022/04/23 00:08:40;;;;;;;24.08;21.58;;;;;;;12.20;69.24;97978.22;5028462;28;20043;-83
2022/04/23 00:11:05;;;;;;;26.48;22.77;;;;;;;12.22;68.66;97975.28;5003431;28;20064;-83
2022/04/23 00:13:31;;;;;;;29.23;22.98;;;;;;;12.31;68.81;97974.41;5028578;28;20042;-83
2022/04/23 00:15:56;;;;;;;28.52;21.50;;;;;;;12.29;68.79;97984.59;4995148;28;20310;-83
2022/04/23 00:18:21;;;;;;;24.42;21.35;;;;;;;12.23;68.70;97979.56;5023763;28;20030;-83
2022/04/23 00:20:46;;;;;;;28.42;22.55;;;;;;;12.13;68.43;97960.88;5024554;28;20060;-83
2022/04/23 00:23:12;;;;;;;27.17;22.92;;;;;;;12.03;68.86;97970.59;5023501;28;20515;-84
2022/04/23 00:25:39;;;;;;;25.17;22.00;;;;;;;12.20;69.03;97972.88;5025934;28;20136;-83
2022/04/23 00:28:05;;;;;;;27.10;23.40;;;;;;;12.18;68.63;97979.59;5026814;28;20484;-84
2022/04/23 00:30:31;;;;;;;27.80;23.45;;;;;;;12.11;68.90;97976.44;5027258;28;20120;-83
2022/04/23 00:33:00;;;;;;;27.27;23.63;;;;;;;12.22;68.74;97977.94;5043521;28;20125;-84
2022/04/23 00:35:26;;;;;;;28.55;24.02;;;;;;;12.22;68.82;97969.91;5009127;28;20501;-84
2022/04/23 00:37:52;;;;;;;27.05;24.05;;;;;;;12.15;69.08;97975.59;5020176;28;20032;-83
2022/04/23 00:40:18;;;;;;;30.35;25.05;;;;;;;12.11;69.18;97987.13;5032679;28;20211;-84
2022/04/23 00:42:47;;;;;;;25.55;22.50;;;;;;;12.23;69.06;97987.59;5040031;28;20389;-84
2022/04/23 00:45:13;;;;;;;30.38;24.25;;;;;;;12.15;68.80;97983.63;5032841;28;20037;-84
2022/04/23 00:47:38;;;;;;;28.48;24.63;;;;;;;12.14;68.71;97987.38;5009638;28;20535;-83
2022/04/23 00:50:04;;;;;;;27.83;23.42;;;;;;;11.97;68.91;97971.72;5034227;28;20025;-84
2022/04/23 00:52:32;;;;;;;33.85;24.63;;;;;;;12.03;68.52;97973.25;5024812;28;20365;-83
2022/04/23 00:54:59;;;;;;;29.17;24.77;;;;;;;12.07;68.40;97975.38;5027892;28;20300;-83
2022/04/23 00:57:24;;;;;;;29.98;26.40;;;;;;;12.23;68.18;97982.22;5027462;28;20018;-83
2022/04/23 00:59:50;;;;;;;32.67;25.90;;;;;;;12.06;68.64;97979.94;5015141;28;20086;-83
2022/04/23 01:02:15;;;;;;;29.77;24.63;;;;;;;12.09;68.25;97986.59;5024621;28;20109;-84
2022/04/23 01:04:41;;;;;;;29.35;24.83;;;;;;;12.06;68.57;97971.91;5010530;28;20025;-83
2022/04/23 01:07:08;;;;;;;30.00;25.30;;;;;;;11.98;68.82;97983.22;5023377;28;20108;-84
2022/04/23 01:09:33;;;;;;;31.08;24.75;;;;;;;12.03;68.47;97986.63;5028171;28;20033;-83
2022/04/23 01:11:59;;;;;;;32.25;26.58;;;;;;;12.07;68.68;97983.41;5021666;28;20190;-83
2022/04/23 01:14:25;;;;;;;29.08;25.20;;;;;;;12.16;68.03;97971.03;5026296;28;20101;-83
2022/04/23 01:16:51;;;;;;;34.38;26.50;;;;;;;11.94;68.55;97974.97;5010625;28;20032;-84
2022/04/23 01:19:17;;;;;;;34.13;26.95;;;;;;;12.04;68.70;97990.91;5010792;28;20504;-83
2022/04/23 01:21:42;;;;;;;31.30;25.60;;;;;;;12.05;68.74;97991.72;5013842;28;20114;-83
2022/04/23 01:24:09;;;;;;;29.45;25.52;;;;;;;11.97;68.90;97990.44;5026128;28;20480;-83
2022/04/23 01:26:34;;;;;;;31.08;25.52;;;;;;;11.99;68.21;97982.16;5025064;28;20397;-83
2022/04/23 01:29:00;;;;;;;31.40;25.75;;;;;;;11.87;68.71;97985.16;5008909;28;20029;-83
2022/04/23 01:31:26;;;;;;;36.35;26.60;;;;;;;11.97;68.78;97985.09;5022805;28;20131;-83
2022/04/23 01:33:52;;;;;;;34.22;26.00;;;;;;;11.98;68.33;97980.53;5001345;28;20516;-83
2022/04/23 01:36:17;;;;;;;37.30;28.45;;;;;;;12.04;68.50;97980.22;5016222;28;20037;-83
2022/04/23 01:38:43;;;;;;;34.45;26.15;;;;;;;11.93;68.82;97973.34;5000215;28;20389;-83
2022/04/23 01:41:09;;;;;;;34.15;26.00;;;;;;;12.02;68.18;97977.03;5022444;28;20044;-83
2022/04/23 01:43:34;;;;;;;35.08;26.45;;;;;;;11.97;68.44;97974.38;5010447;28;20026;-83
2022/04/23 01:45:59;;;;;;;35.88;26.85;;;;;;;12.01;68.04;97982.66;5023943;28;20065;-83
2022/04/23 01:48:25;;;;;;;35.40;25.42;;;;;;;11.96;68.31;97985.38;4993840;28;20124;-83
2022/04/23 01:50:50;;;;;;;34.75;25.40;;;;;;;11.84;68.61;97971.53;5020768;28;20030;-83
2022/04/23 01:53:18;;;;;;;35.42;26.02;;;;;;;11.81;68.02;97972.91;5005053;28;20022;-83
2022/04/23 01:55:43;;;;;;;36.13;26.83;;;;;;;11.91;68.15;97978.19;5024018;28;20390;-83
2022/04/23 01:58:09;;;;;;;35.38;26.25;;;;;;;11.94;68.43;97985.66;5000572;28;20033;-84
2022/04/23 02:00:34;;;;;;;33.85;25.23;;;;;;;11.87;68.19;97977.13;4996169;28;20034;-83
2022/04/23 02:02:59;;;;;;;34.63;25.25;;;;;;;11.89;68.13;97988.34;5018325;28;20046;-83
2022/04/23 02:05:24;;;;;;;33.42;23.48;;;;;;;11.82;68.17;97976.34;4998405;28;20120;-83
2022/04/23 02:07:50;;;;;;;36.20;24.70;;;;;;;11.85;68.15;97990.00;5024266;28;20045;-83
2022/04/23 02:10:16;;;;;;;35.60;25.33;;;;;;;11.92;68.00;97987.00;5020996;28;20037;-83
2022/04/23 02:12:42;;;;;;;33.42;23.67;;;;;;;11.85;68.36;97987.31;5022747;28;20030;-84
2022/04/23 02:15:12;;;;;;;32.90;25.10;;;;;;;11.77;68.14;97971.06;5025823;28;20400;-83
2022/04/23 02:17:39;;;;;;;32.45;24.52;;;;;;;11.91;67.80;97982.72;5021541;28;20037;-83
2022/04/23 02:20:06;;;;;;;33.90;24.95;;;;;;;11.81;67.92;97986.28;5015163;28;20029;-84
2022/04/23 02:22:32;;;;;;;33.10;25.25;;;;;;;11.74;68.70;97987.66;5029314;28;20036;-83
2022/04/23 02:24:57;;;;;;;33.33;25.00;;;;;;;11.72;67.85;97971.91;5014665;28;20022;-84
2022/04/23 02:27:23;;;;;;;33.08;25.13;;;;;;;11.77;68.07;97979.09;5022226;28;20068;-84
2022/04/23 02:29:50;;;;;;;32.15;23.38;;;;;;;11.76;68.50;97990.84;5028880;28;20044;-84
2022/04/23 02:32:15;;;;;;;31.60;23.63;;;;;;;11.72;68.29;97984.44;5011139;28;20564;-84
2022/04/23 02:34:41;;;;;;;36.88;25.42;;;;;;;11.74;68.58;97985.78;5012714;28;20175;-84
2022/04/23 02:37:07;;;;;;;33.50;23.90;;;;;;;11.73;68.86;97980.72;5024972;28;20037;-84
2022/04/23 02:39:33;;;;;;;31.80;23.45;;;;;;;11.81;68.14;97982.78;5014825;28;20091;-84
2022/04/23 02:41:58;;;;;;;34.63;24.63;;;;;;;11.67;68.32;97966.56;5010265;28;20108;-84
2022/04/23 02:44:23;;;;;;;31.65;23.70;;;;;;;11.74;68.52;97980.44;5031477;28;20034;-83
2022/04/23 02:46:49;;;;;;;30.38;23.00;;;;;;;11.73;68.01;97989.50;5011654;28;20168;-84
2022/04/23 02:49:14;;;;;;;32.45;23.60;;;;;;;11.76;67.92;97990.84;5023618;28;20055;-84
2022/04/23 02:51:42;;;;;;;31.42;23.08;;;;;;;11.62;68.14;97977.25;4996188;28;20120;-84
2022/04/23 02:54:07;;;;;;;33.20;24.75;;;;;;;11.73;67.93;97989.50;5014044;28;20044;-84
2022/04/23 02:56:33;;;;;;;32.83;22.83;;;;;;;11.64;68.17;97990.34;5018777;28;20033;-84
2022/04/23 02:58:59;;;;;;;34.08;23.77;;;;;;;11.68;68.21;97986.88;5021269;28;20045;-84
2022/04/23 03:01:24;;;;;;;33.03;24.60;;;;;;;11.66;67.97;97983.66;5010145;28;20053;-83
2022/04/23 03:03:54;;;;;;;32.15;24.17;;;;;;;11.65;68.10;97981.25;5024137;28;20029;-84
2022/04/23 03:06:20;;;;;;;33.85;24.35;;;;;;;11.72;67.79;97987.94;5012793;28;20038;-84
2022/04/23 03:08:46;;;;;;;31.98;23.25;;;;;;;11.61;68.43;97986.34;5025231;28;20321;-84
2022/04/23 03:11:11;;;;;;;31.88;23.77;;;;;;;11.67;67.97;97990.63;5030794;28;20029;-84
2022/04/23 03:13:36;;;;;;;31.80;22.13;;;;;;;11.60;68.17;97987.41;5010183;28;20088;-84
2022/04/23 03:16:02;;;;;;;31.27;22.83;;;;;;;11.66;68.32;97993.56;5024583;28;20029;-84
2022/04/23 03:18:28;;;;;;;33.17;23.63;;;;;;;11.61;68.09;97982.88;5022350;28;20064;-84
2022/04/23 03:20:53;;;;;;;36.15;24.27;;;;;;;11.51;67.95;97977.59;5010930;28;20541;-84
2022/04/23 03:23:21;;;;;;;32.22;22.33;;;;;;;11.57;68.26;97990.66;5026915;28;20024;-84
2022/04/23 03:25:46;;;;;;;31.92;23.35;;;;;;;11.54;67.83;97988.53;5034292;28;20451;-84
2022/04/23 03:28:13;;;;;;;33.63;23.58;;;;;;;11.67;67.97;97982.59;5003588;28;20037;-84
2022/04/23 03:30:40;;;;;;;36.88;23.70;;;;;;;11.57;68.25;97974.63;5027391;28;20095;-84
2022/04/23 03:33:05;;;;;;;34.45;23.45;;;;;;;11.67;68.20;97992.50;5028675;28;20506;-84
2022/04/23 03:35:30;;;;;;;30.70;24.17;;;;;;;11.62;67.56;97979.91;5021980;28;20132;-84
2022/04/23 03:37:58;;;;;;;36.80;23.33;;;;;;;11.55;68.16;97982.13;5013349;28;20124;-84
2022/04/23 03:40:24;;;;;;;31.73;21.40;;;;;;;11.51;67.78;97981.06;5016569;28;20026;-83
2022/04/23 03:42:49;;;;;;;35.38;24.00;;;;;;;11.59;68.28;97980.50;5031147;28;20022;-84
2022/04/23 03:45:19;;;;;;;31.85;22.23;;;;;;;11.54;67.83;97969.81;5022370;28;20049;-84
2022/04/23 03:47:46;;;;;;;32.63;22.35;;;;;;;11.58;67.85;97976.22;5013508;28;20080;-84
2022/04/23 03:50:13;;;;;;;33.13;22.63;;;;;;;11.59;67.79;97974.34;5029620;28;20047;-84
2022/04/23 03:52:38;;;;;;;34.33;23.48;;;;;;;11.52;67.93;97981.84;5030800;28;20025;-84
2022/04/23 03:55:04;;;;;;;30.35;21.75;;;;;;;11.45;67.67;97965.31;5027044;28;20359;-84
2022/04/23 03:57:30;;;;;;;29.20;21.98;;;;;;;11.52;68.11;97969.28;5029365;28;20033;-84
2022/04/23 03:59:55;;;;;;;29.23;21.65;;;;;;;11.47;67.81;97977.34;5031828;28;20316;-84
2022/04/23 04:02:20;;;;;;;32.70;22.13;;;;;;;11.42;68.49;97973.91;5026236;28;20048;-84
2022/04/23 04:04:46;;;;;;;31.52;23.25;;;;;;;11.28;67.92;97963.81;5011485;28;20028;-84
2022/04/23 04:07:18;;;;;;;30.02;22.15;;;;;;;11.43;67.73;97976.28;5029990;28;20390;-84
2022/04/23 04:09:44;;;;;;;37.00;24.13;;;;;;;11.31;67.80;97967.81;5030399;28;20661;-84
2022/04/23 04:12:10;;;;;;;36.08;23.75;;;;;;;11.40;68.11;97987.50;5030192;28;20056;-84
2022/04/23 04:14:36;;;;;;;28.55;19.90;;;;;;;11.42;67.90;97977.38;5021392;28;20577;-84
2022/04/23 04:17:05;;;;;;;33.42;22.10;;;;;;;11.49;67.27;97988.53;5028495;28;20397;-83
2022/04/23 04:19:34;;;;;;;34.08;22.10;;;;;;;11.37;67.87;97972.06;5011612;28;20033;-84
2022/04/23 04:22:02;;;;;;;29.05;20.63;;;;;;;11.45;67.11;97981.34;5028878;28;20048;-84
2022/04/23 04:24:28;;;;;;;31.85;22.30;;;;;;;11.37;67.61;97987.28;5028103;28;20323;-83
2022/04/23 04:26:53;;;;;;;33.55;21.58;;;;;;;11.33;67.76;97982.47;5030274;28;20038;-84
2022/04/23 04:29:19;;;;;;;30.88;21.88;;;;;;;11.15;68.09;97985.78;5008853;28;20025;-84
2022/04/23 04:31:51;;;;;;;33.75;23.15;;;;;;;11.24;67.83;97978.78;5020806;28;20170;-84
2022/04/23 04:34:30;;;;;;;32.90;22.48;;;;;;;11.23;67.31;97992.41;5024010;28;20374;-84
2022/04/23 04:37:07;;;;;;;30.90;21.52;;;;;;;11.27;67.12;97974.75;5022451;28;20045;-84
2022/04/23 04:39:33;;;;;;;32.58;21.98;;;;;;;11.26;67.31;97995.34;5021795;28;20121;-84
2022/04/23 04:41:58;;;;;;;33.78;22.23;;;;;;;11.25;67.66;97992.94;5007392;28;20120;-84
2022/04/23 04:44:24;;;;;;;33.70;21.58;;;;;;;11.32;67.21;97988.09;5037214;28;20025;-84
2022/04/23 04:46:49;;;;;;;30.88;21.27;;;;;;;11.29;67.07;97992.09;5003413;28;20477;-84
2022/04/23 04:49:18;;;;;;;27.77;20.02;;;;;;;11.36;66.76;97994.47;5019402;28;20030;-84
2022/04/23 04:51:43;;;;;;;31.98;21.23;;;;;;;11.26;66.93;97991.88;5026528;28;20563;-84
2022/04/23 04:54:09;;;;;;;30.65;20.27;;;;;;;11.24;67.45;98002.03;5023260;28;20029;-83
2022/04/23 04:56:34;;;;;;;30.17;19.70;;;;;;;11.43;66.70;98004.88;5025421;28;20155;-84
2022/04/23 04:59:00;;;;;;;30.42;19.75;;;;;;;11.28;67.11;97997.72;5024718;28;20029;-84
2022/04/23 05:01:26;;;;;;;30.95;19.92;;;;;;;11.17;67.45;97996.97;5025668;28;20072;-84
2022/04/23 05:03:53;;;;;;;28.80;19.52;;;;;;;11.09;67.75;98002.88;5043003;28;20049;-84
2022/04/23 05:06:19;;;;;;;32.45;20.30;;;;;;;11.24;67.25;98018.06;4997368;28;20034;-84
2022/04/23 05:08:44;;;;;;;30.00;19.02;;;;;;;11.38;67.16;98012.94;5030029;28;20037;-84
2022/04/23 05:11:10;;;;;;;28.40;20.20;;;;;;;11.30;67.55;98015.09;5010422;28;20057;-84
2022/04/23 05:13:36;;;;;;;31.08;21.33;;;;;;;11.42;67.11;98014.78;5001933;28;20162;-84
2022/04/23 05:16:04;;;;;;;29.65;19.25;;;;;;;11.36;66.88;98020.44;5014476;28;20064;-83
2022/04/23 05:18:29;;;;;;;26.73;18.58;;;;;;;11.51;66.71;98023.81;5008106;28;20489;-84
2022/04/23 05:20:54;;;;;;;25.13;18.10;;;;;;;11.46;66.76;98021.19;5013394;28;20034;-84
2022/04/23 05:23:20;;;;;;;26.63;19.08;;;;;;;11.62;66.71;98029.94;5027494;28;20037;-84
2022/04/23 05:25:45;;;;;;;22.10;18.33;;;;;;;11.46;66.87;98021.19;4989788;28;20446;-84
2022/04/23 05:28:11;;;;;;;27.70;19.15;;;;;;;11.45;66.39;98024.09;5002607;28;20095;-84
2022/04/23 05:30:37;;;;;;;25.20;17.60;;;;;;;11.56;66.77;98023.00;5024831;28;20038;-84
2022/04/23 05:33:04;;;;;;;22.63;17.33;;;;;;;11.68;65.60;98018.97;5022294;28;20037;-84
2022/04/23 05:35:29;;;;;;;25.50;17.52;;;;;;;11.73;65.06;98026.94;5021672;28;20500;-83
2022/04/23 05:37:55;;;;;;;23.13;16.98;;;;;;;11.72;65.44;98025.34;5010179;28;20033;-83
2022/04/23 05:40:20;;;;;;;21.73;16.48;;;;;;;11.84;64.86;98017.78;5011095;28;20026;-84
2022/04/23 05:42:45;;;;;;;28.55;18.95;;;;;;;11.89;64.92;98025.78;5009004;28;20098;-84
2022/04/23 05:45:11;;;;;;;24.92;17.52;;;;;;;11.86;65.26;98017.53;5008054;28;20212;-84
2022/04/23 05:47:42;;;;;;;23.55;16.35;;;;;;;11.78;65.09;98026.13;5026968;28;20099;-84
2022/04/23 05:50:10;;;;;;;23.23;16.90;;;;;;;11.75;64.98;98037.38;5027324;28;20041;-84
2022/04/23 05:52:37;;;;;;;23.85;17.13;;;;;;;11.81;64.55;98028.25;5014531;28;20033;-84
2022/04/23 05:55:04;;;;;;;20.58;16.65;;;;;;;11.86;64.35;98033.56;5017237;28;20030;-84
2022/04/23 05:57:31;;;;;;;26.42;17.30;;;;;;;11.77;64.18;98013.84;5026288;28;20529;-84
2022/04/23 05:59:57;;;;;;;21.05;16.38;;;;;;;11.91;64.35;98036.19;5016527;28;20049;-84
2022/04/23 06:02:22;;;;;;;21.95;16.75;;;;;;;11.83;64.38;98024.22;5021347;28;20022;-84
2022/04/23 06:04:49;;;;;;;22.27;15.93;;;;;;;11.90;64.35;98038.06;5028631;28;20029;-84
2022/04/23 06:07:15;;;;;;;20.75;14.95;;;;;;;11.81;64.17;98023.72;5025516;28;20396;-84
2022/04/23 06:09:40;;;;;;;20.27;15.63;;;;;;;11.84;64.19;98038.38;5027427;28;20116;-84
2022/04/23 06:12:06;;;;;;;21.15;16.13;;;;;;;11.68;64.18;98042.22;5030737;28;20389;-84
2022/04/23 06:14:31;;;;;;;22.30;16.60;;;;;;;11.77;64.31;98038.69;5007830;28;20037;-84
2022/04/23 06:16:56;;;;;;;20.73;16.05;;;;;;;11.86;63.67;98041.59;5014364;28;20473;-85
2022/04/23 06:19:22;;;;;;;19.98;15.35;;;;;;;11.64;63.74;98025.88;5014648;28;20291;-85
2022/04/23 06:21:47;;;;;;;18.38;14.50;;;;;;;11.74;63.93;98041.13;5027647;28;20032;-85
2022/04/23 06:24:13;;;;;;;19.38;16.10;;;;;;;11.81;63.53;98038.94;5039251;28;20469;-85
2022/04/23 06:26:38;;;;;;;18.05;14.23;;;;;;;11.63;64.19;98044.88;5011371;28;20036;-85
2022/04/23 06:29:03;;;;;;;24.30;17.00;;;;;;;11.70;64.34;98045.41;5021518;28;20021;-85
2022/04/23 06:31:29;;;;;;;19.30;14.82;;;;;;;11.77;63.65;98045.91;4992594;28;20036;-85
2022/04/23 06:33:54;;;;;;;18.45;14.23;;;;;;;11.74;63.75;98033.09;5018344;28;20021;-85
2022/04/23 06:36:20;;;;;;;24.67;16.00;;;;;;;11.75;63.75;98043.50;5019663;28;20036;-84
2022/04/23 06:38:46;;;;;;;19.80;14.65;;;;;;;11.76;63.39;98031.75;5024845;28;20051;-84
2022/04/23 06:41:11;;;;;;;19.35;15.57;;;;;;;11.69;64.19;98038.47;5033115;28;20110;-85
2022/04/23 06:43:36;;;;;;;21.23;16.42;;;;;;;11.72;64.17;98046.75;4995118;28;20109;-85
2022/04/23 06:46:02;;;;;;;16.45;14.05;;;;;;;11.81;63.80;98029.06;5013106;28;20045;-85
2022/04/23 06:48:27;;;;;;;20.73;15.13;;;;;;;11.72;63.53;98027.22;5012329;28;20099;-85
2022/04/23 06:50:52;;;;;;;19.30;14.20;;;;;;;11.80;63.37;98035.47;5021134;28;20056;-85
2022/04/23 06:53:18;;;;;;;17.90;13.88;;;;;;;11.74;63.41;98023.19;5027520;28;20473;-84
2022/04/23 06:55:43;;;;;;;17.55;14.75;;;;;;;11.88;63.25;98034.88;5017919;28;20409;-83
2022/04/23 06:58:08;;;;;;;16.33;14.60;;;;;;;11.90;63.22;98038.06;5012472;28;20038;-83
2022/04/23 07:00:34;;;;;;;17.02;14.15;;;;;;;11.87;63.50;98044.00;5016766;28;20041;-83
2022/04/23 07:03:00;;;;;;;19.48;14.32;;;;;;;12.04;62.97;98055.13;5034859;28;20478;-83
2022/04/23 07:05:25;;;;;;;19.38;15.73;;;;;;;11.85;63.31;98046.13;5028949;28;20241;-83
2022/04/23 07:07:59;;;;;;;19.05;15.32;;;;;;;11.80;63.55;98048.84;5020618;28;20028;-83
2022/04/23 07:10:28;;;;;;;19.38;14.25;;;;;;;11.94;63.32;98065.88;5025483;28;20029;-83
2022/04/23 07:12:54;;;;;;;19.73;14.65;;;;;;;11.94;62.84;98054.38;5031528;28;20397;-83
2022/04/23 07:15:21;;;;;;;17.80;13.88;;;;;;;11.95;62.71;98046.06;5022851;28;20026;-83
2022/04/23 07:17:47;;;;;;;19.50;14.48;;;;;;;12.13;62.82;98057.19;5026444;28;20025;-83
2022/04/23 07:20:13;;;;;;;18.58;14.43;;;;;;;12.03;63.10;98056.19;5033183;28;20025;-83
2022/04/23 07:22:38;;;;;;;17.35;12.57;;;;;;;12.18;62.70;98059.84;5023853;28;20035;-83
2022/04/23 07:25:04;;;;;;;18.55;14.05;;;;;;;12.18;62.31;98060.66;4996002;28;20033;-83
2022/04/23 07:27:29;;;;;;;18.13;14.30;;;;;;;12.40;62.37;98062.91;5031512;28;20678;-83
2022/04/23 07:29:55;;;;;;;18.23;13.63;;;;;;;12.39;62.34;98056.75;5027913;28;20083;-83
2022/04/23 07:32:21;;;;;;;17.20;13.82;;;;;;;12.07;62.60;98059.13;5020153;28;20041;-84
2022/04/23 07:37:33;;;;;;;18.85;13.40;;;;;;;12.27;62.37;98060.84;5027767;28;20558;-83
2022/04/23 07:40:05;;;;;;;18.52;14.50;;;;;;;12.15;62.25;98066.53;4992333;28;20105;-82
2022/04/23 07:42:31;;;;;;;20.30;15.93;;;;;;;12.27;60.88;98068.88;5012198;28;20490;-82
2022/04/23 07:44:57;;;;;;;21.05;16.05;;;;;;;12.14;60.22;98048.09;5033834;28;20020;-82
2022/04/23 07:47:23;;;;;;;19.50;14.20;;;;;;;12.20;60.01;98052.34;5039549;28;20097;-82
2022/04/23 07:49:48;;;;;;;20.73;14.38;;;;;;;12.27;59.40;98055.50;5031630;28;20033;-82
2022/04/23 07:52:14;;;;;;;19.83;14.52;;;;;;;12.17;59.90;98061.72;5028228;28;20528;-83
2022/04/23 07:54:39;;;;;;;19.52;14.80;;;;;;;12.08;59.81;98049.22;5038709;28;20088;-83
2022/04/23 07:57:12;;;;;;;18.60;14.48;;;;;;;12.20;59.16;98063.03;5015337;28;20582;-83
2022/04/23 07:59:40;;;;;;;25.50;14.98;;;;;;;12.23;59.15;98057.91;5024930;28;20025;-84
2022/04/23 08:02:05;;;;;;;18.83;14.45;;;;;;;12.22;58.46;98059.00;5033073;28;20507;-82
2022/04/23 08:04:31;;;;;;;17.40;14.60;;;;;;;12.19;59.13;98056.09;5015292;28;20029;-82
2022/04/23 08:06:56;;;;;;;21.58;14.90;;;;;;;12.17;58.76;98044.84;5034904;28;20022;-82
2022/04/23 08:09:22;;;;;;;18.60;14.35;;;;;;;12.16;59.63;98059.31;5011616;28;20037;-83
2022/04/23 08:11:47;;;;;;;16.45;13.98;;;;;;;12.31;58.73;98049.31;5008198;28;20362;-83
2022/04/23 08:14:12;;;;;;;16.42;13.15;;;;;;;12.39;58.83;98034.53;4994605;28;20030;-85
2022/04/23 08:16:38;;;;;;;16.17;13.48;;;;;;;12.47;59.21;98050.00;4988248;28;20061;-85
2022/04/23 08:19:03;;;;;;;18.73;12.48;;;;;;;12.55;59.44;98052.88;4997404;28;20034;-85
2022/04/23 08:21:28;;;;;;;17.35;13.27;;;;;;;12.63;58.90;98046.13;5004821;28;20449;-85
2022/04/23 08:23:54;;;;;;;16.38;12.23;;;;;;;12.69;59.01;98053.81;5032036;28;20033;-85
2022/04/23 08:26:19;;;;;;;14.00;12.27;;;;;;;12.71;58.66;98048.97;5029279;28;20026;-85
2022/04/23 08:31:28;;;;;;;15.73;11.60;;;;;;;12.82;57.34;98038.19;5029882;28;20088;-83
2022/04/23 08:34:03;;;;;;;16.55;12.40;;;;;;;12.86;56.89;98044.59;5024460;28;20026;-83
2022/04/23 08:36:36;;;;;;;15.82;12.65;;;;;;;12.91;56.82;98039.97;5013948;28;20029;-86
2022/04/23 08:39:04;;;;;;;12.90;11.20;;;;;;;12.75;56.41;98036.63;5025427;28;20061;-87
2022/04/23 08:41:31;;;;;;;14.27;11.85;;;;;;;12.86;56.99;98049.94;5029767;28;20087;-86
2022/04/23 08:44:09;;;;;;;12.98;11.57;;;;;;;12.93;56.95;98042.38;5030645;28;20443;-86
2022/04/23 08:46:37;;;;;;;13.15;11.10;;;;;;;12.93;56.90;98048.50;4997859;28;20033;-86
2022/04/23 08:49:17;;;;;;;12.50;10.40;;;;;;;12.99;57.38;98044.72;5022702;28;20018;-86
2022/04/23 08:51:47;;;;;;;12.50;10.73;;;;;;;13.00;57.14;98043.63;5010163;28;20036;-87
2022/04/23 08:54:16;;;;;;;14.20;10.82;;;;;;;13.13;57.15;98051.03;5016158;28;20028;-87
2022/04/23 08:56:43;;;;;;;12.32;10.15;;;;;;;13.23;56.86;98045.56;5011715;28;20029;-87
2022/04/23 08:59:11;;;;;;;13.55;11.20;;;;;;;13.24;57.21;98035.63;5025465;28;20061;-87
2022/04/23 09:01:38;;;;;;;14.05;10.98;;;;;;;13.33;56.26;98033.91;5025987;28;20029;-87
2022/04/23 09:04:05;;;;;;;13.07;10.75;;;;;;;13.28;56.59;98031.31;5023883;28;20029;-83
2022/04/23 09:06:56;;;;;;;13.73;10.35;;;;;;;13.42;56.87;98030.34;5024717;28;20036;-83
2022/04/23 09:09:24;;;;;;;11.88;10.68;;;;;;;13.42;56.50;98035.69;5005676;28;20045;-83
2022/04/23 09:11:50;;;;;;;13.82;10.60;;;;;;;13.48;56.85;98037.22;5026654;28;20056;-83
2022/04/23 09:14:23;;;;;;;11.50;9.90;;;;;;;13.58;56.67;98038.19;5024001;28;20490;-83
2022/04/23 09:25:08;;;;;;;12.02;9.68;;;;;;;13.78;56.11;98035.25;5024815;28;20032;-83
2022/04/23 09:27:34;;;;;;;12.77;10.18;;;;;;;13.86;56.25;98029.22;5030256;28;20079;-83
2022/04/23 09:30:10;;;;;;;11.50;8.95;;;;;;;13.90;55.63;98027.56;5028724;28;20469;-83
2022/04/23 09:32:36;;;;;;;15.52;10.07;;;;;;;14.03;55.41;98038.38;5014319;28;20499;-84
2022/04/23 09:35:05;;;;;;;12.02;10.35;;;;;;;14.05;55.19;98033.50;5019749;28;20112;-84
2022/04/23 09:38:11;;;;;;;11.05;9.50;;;;;;;14.03;55.75;98026.84;5027577;28;20485;-84
2022/04/23 09:40:21;;;;;;;11.85;9.90;;;;;;;14.16;55.32;98031.47;5025336;28;20038;-84
2022/04/23 09:43:29;;;;;;;11.75;9.55;;;;;;;14.24;55.17;98033.53;5012540;28;20030;-84
2022/04/23 09:46:02;;;;;;;16.20;9.43;;;;;;;14.22;55.58;98024.94;4998987;28;20136;-84
2022/04/23 09:48:27;;;;;;;12.80;10.20;;;;;;;14.17;55.35;98006.25;5011270;28;20033;-84
2022/04/23 09:50:53;;;;;;;14.88;9.52;;;;;;;14.31;54.59;98000.97;5008928;28;20120;-83
2022/04/23 09:53:20;;;;;;;10.35;9.35;;;;;;;14.37;54.96;98024.75;5028754;28;20033;-83
2022/04/23 09:55:46;;;;;;;12.05;8.85;;;;;;;14.42;54.61;98021.97;5010106;28;20115;-84
2022/04/23 09:58:13;;;;;;;10.88;9.15;;;;;;;14.51;54.43;98011.34;5013211;28;20041;-84
2022/04/23 10:00:43;;;;;;;11.20;9.85;;;;;;;14.59;53.75;98022.22;5010869;28;20040;-84
2022/04/23 10:03:10;;;;;;;10.45;8.50;;;;;;;14.78;53.41;98017.63;5012963;28;20057;-84
2022/04/23 10:05:38;;;;;;;12.38;8.80;;;;;;;14.76;53.54;98009.06;5031419;28;20041;-84
2022/04/23 10:08:10;;;;;;;9.50;8.45;;;;;;;14.84;53.79;98015.63;5024040;28;20040;-84
2022/04/23 10:11:00;;;;;;;9.23;7.45;;;;;;;14.87;53.40;98015.81;5006664;28;20029;-84
2022/04/23 10:13:29;;;;;;;9.85;8.43;;;;;;;14.97;52.86;98002.22;5026679;28;20040;-84
2022/04/23 10:15:55;;;;;;;8.75;7.65;;;;;;;15.03;52.71;98009.09;5025471;28;20029;-84
2022/04/23 10:18:21;;;;;;;9.98;7.57;;;;;;;14.98;52.48;98006.47;5023594;28;20021;-84
2022/04/23 10:20:55;;;;;;;10.55;7.20;;;;;;;15.06;52.39;98007.69;5027138;28;20041;-83
2022/04/23 10:23:50;;;;;;;9.23;7.03;;;;;;;15.14;52.26;98016.94;5023249;28;20385;-84
2022/04/23 10:26:43;;;;;;;8.32;7.35;;;;;;;15.24;51.67;98004.13;5025502;28;20081;-84
2022/04/23 10:29:16;;;;;;;7.22;6.53;;;;;;;15.31;51.72;98006.41;5024692;28;20095;-84
2022/04/23 10:31:42;;;;;;;8.60;6.63;;;;;;;15.30;51.75;98002.94;5023606;28;20025;-84
2022/04/23 10:34:32;;;;;;;7.32;6.45;;;;;;;15.45;51.15;97999.97;5037688;28;20064;-84
2022/04/23 10:37:22;;;;;;;11.05;6.55;;;;;;;15.46;51.53;97990.81;5006831;28;20037;-84
2022/04/23 10:39:50;;;;;;;7.18;6.30;;;;;;;15.60;51.36;97996.94;5016514;28;20037;-84
2022/04/23 10:42:17;;;;;;;9.05;7.00;;;;;;;15.72;50.75;98001.81;5033461;28;20072;-84
2022/04/23 10:44:44;;;;;;;7.32;6.47;;;;;;;15.75;50.86;98003.88;5024192;28;20022;-84
2022/04/23 10:47:29;;;;;;;8.93;5.60;;;;;;;15.80;50.56;98001.09;4999942;28;20398;-84
2022/04/23 10:50:22;;;;;;;6.63;5.88;;;;;;;15.93;50.08;97991.38;5034672;28;20067;-84
2022/04/23 10:52:55;;;;;;;8.30;5.32;;;;;;;15.97;50.09;97987.78;5026322;28;20143;-84
2022/04/23 10:55:21;;;;;;;6.13;5.53;;;;;;;16.01;49.87;97999.53;5035481;28;20025;-84
2022/04/23 10:57:49;;;;;;;7.00;6.35;;;;;;;16.02;49.12;97976.91;5019029;28;20088;-84
2022/04/23 11:00:16;;;;;;;6.53;5.30;;;;;;;16.14;48.93;97973.69;5021985;28;20038;-85
2022/04/23 11:02:45;;;;;;;7.82;6.72;;;;;;;16.27;49.17;97989.75;5030242;28;20029;-85
2022/04/23 11:13:53;;;;;;;7.50;5.53;;;;;;;16.22;46.36;97979.13;5024652;28;20024;-83
2022/04/23 11:16:20;;;;;;;7.32;5.72;;;;;;;16.30;46.92;97973.00;5028719;28;20037;-84
2022/04/23 11:18:51;;;;;;;8.70;5.60;;;;;;;16.46;46.62;97986.91;5011573;28;20039;-84
2022/04/23 11:21:27;;;;;;;5.88;5.38;;;;;;;16.58;46.50;97976.38;5021507;28;20417;-84
2022/04/23 11:23:55;;;;;;;10.07;6.15;;;;;;;16.66;46.85;97969.47;5008045;28;20449;-84
2022/04/23 11:26:38;;;;;;;6.60;5.40;;;;;;;16.68;46.75;97964.56;5023361;28;20049;-84
2022/04/23 11:29:03;;;;;;;6.82;4.80;;;;;;;16.78;46.19;97972.38;5019766;28;20099;-83
2022/04/23 11:31:28;;;;;;;6.03;4.65;;;;;;;16.94;46.14;97952.81;5004967;28;20079;-84
2022/04/23 11:33:55;;;;;;;5.82;4.43;;;;;;;17.05;46.68;97964.09;5011593;28;20562;-84
2022/04/23 11:36:26;;;;;;;5.78;4.75;;;;;;;17.11;46.70;97950.16;5021160;28;20037;-84
2022/04/23 11:38:52;;;;;;;6.07;5.45;;;;;;;17.23;46.37;97960.34;5010387;28;20064;-84
2022/04/23 11:41:38;;;;;;;5.47;4.97;;;;;;;17.34;45.83;97964.38;5019251;28;20529;-84
2022/04/23 11:44:16;;;;;;;4.63;4.22;;;;;;;17.41;45.30;97961.97;5023457;28;20029;-85